createdAt,value
2023-01-11T00:00:08.480Z,96.03
2023-01-11T00:01:08.480Z,96.03
2023-01-11T00:02:08.479Z,95.94
2023-01-11T00:03:08.443Z,95.94
2023-01-11T00:04:08.455Z,95.94
2023-01-11T00:05:08.401Z,95.94
2023-01-11T00:06:08.428Z,95.94
2023-01-11T00:07:08.397Z,95.94
2023-01-11T00:08:08.387Z,95.94
2023-01-11T00:09:08.357Z,95.83
2023-01-11T00:10:08.371Z,95.83
2023-01-11T00:11:08.347Z,95.94
2023-01-11T00:12:08.356Z,95.94
2023-01-11T00:13:08.322Z,95.94
2023-01-11T00:14:08.320Z,95.94
2023-01-11T00:15:08.294Z,95.83
2023-01-11T00:16:08.368Z,95.83
2023-01-11T00:17:08.331Z,95.83
2023-01-11T00:18:08.298Z,95.83
2023-01-11T00:19:08.290Z,95.83
2023-01-11T00:20:08.277Z,95.73
2023-01-11T00:21:08.242Z,95.73
2023-01-11T00:22:08.237Z,95.68
2023-01-11T00:23:08.194Z,95.68
2023-01-11T00:24:08.247Z,95.78
2023-01-11T00:25:08.177Z,95.78
2023-01-11T00:26:08.190Z,95.89
2023-01-11T00:27:08.167Z,95.78
2023-01-11T00:28:08.209Z,95.78
2023-01-11T00:29:08.135Z,95.89
2023-01-11T00:30:08.222Z,95.89
2023-01-11T00:31:08.142Z,95.89
2023-01-11T00:32:08.126Z,95.89
2023-01-11T00:33:08.124Z,95.89
2023-01-11T00:34:08.107Z,95.89
2023-01-11T00:35:08.079Z,95.78
2023-01-11T00:36:08.078Z,95.78
2023-01-11T00:37:08.047Z,95.78
2023-01-11T00:38:08.060Z,95.78
2023-01-11T00:39:08.040Z,95.78
2023-01-11T00:40:08.072Z,95.89
2023-01-11T00:41:08.026Z,95.89
2023-01-11T00:42:08.024Z,95.89
2023-01-11T00:43:08.031Z,95.89
2023-01-11T00:44:07.992Z,95.89
2023-01-11T00:45:07.968Z,95.89
2023-01-11T00:46:08.035Z,95.78
2023-01-11T00:47:07.965Z,95.74
2023-01-11T00:48:07.979Z,95.64
2023-01-11T00:49:07.916Z,95.68
2023-01-11T00:50:07.917Z,95.74
2023-01-11T00:51:07.895Z,95.64
2023-01-11T00:52:07.968Z,95.64
2023-01-11T00:53:07.915Z,95.64
2023-01-11T00:54:07.918Z,95.64
2023-01-11T00:55:07.844Z,95.64
2023-01-11T00:56:07.869Z,95.64
2023-01-11T00:57:07.981Z,95.64
2023-01-11T00:58:07.823Z,95.53
2023-01-11T00:59:07.805Z,95.53
2023-01-11T01:00:07.824Z,95.43
2023-01-11T01:01:07.842Z,95.43
2023-01-11T01:02:07.873Z,95.53
2023-01-11T01:03:07.782Z,95.53
2023-01-11T01:04:07.769Z,95.49
2023-01-11T01:05:07.750Z,95.39
2023-01-11T01:06:07.790Z,95.49
2023-01-11T01:07:07.722Z,95.49
2023-01-11T01:08:07.733Z,95.49
2023-01-11T01:09:07.691Z,95.49
2023-01-11T01:10:07.709Z,95.39
2023-01-11T01:11:07.662Z,95.39
2023-01-11T01:12:07.675Z,95.49
2023-01-11T01:13:07.641Z,95.49
2023-01-11T01:14:07.652Z,95.59
2023-01-11T01:15:07.616Z,95.59
2023-01-11T01:16:07.647Z,95.59
2023-01-11T01:17:07.635Z,95.55
2023-01-11T01:18:07.582Z,95.65
2023-01-11T01:19:07.632Z,95.55
2023-01-11T01:20:07.596Z,95.55
2023-01-11T01:21:07.631Z,95.55
2023-01-11T01:22:07.560Z,95.55
2023-01-11T01:23:07.554Z,95.55
2023-01-11T01:24:07.565Z,95.45
2023-01-11T01:25:07.537Z,95.45
2023-01-11T01:26:07.501Z,95.34
2023-01-11T01:27:07.493Z,95.34
2023-01-11T01:28:07.452Z,95.45
2023-01-11T01:29:07.493Z,95.45
2023-01-11T01:30:07.441Z,95.45
2023-01-11T01:31:07.483Z,95.45
2023-01-11T01:32:07.442Z,95.45
2023-01-11T01:33:07.452Z,95.55
2023-01-11T01:34:07.420Z,95.55
2023-01-11T01:35:07.413Z,95.65
2023-01-11T01:36:07.390Z,95.65
2023-01-11T01:37:07.392Z,95.76
2023-01-11T01:38:07.354Z,95.76
2023-01-11T01:39:07.386Z,95.76
2023-01-11T01:40:07.335Z,95.86
2023-01-11T01:41:07.355Z,95.96
2023-01-11T01:42:07.310Z,96.06
2023-01-11T01:43:07.343Z,96.17
2023-01-11T01:44:07.370Z,96.17
2023-01-11T01:45:07.313Z,96.17
2023-01-11T01:46:07.314Z,96.27
2023-01-11T01:47:07.289Z,96.37
2023-01-11T01:48:07.251Z,96.27
2023-01-11T01:49:07.253Z,96.23
2023-01-11T01:50:07.220Z,96.23
2023-01-11T01:51:07.231Z,96.33
2023-01-11T01:52:07.200Z,96.23
2023-01-11T01:53:07.272Z,96.23
2023-01-11T01:54:07.181Z,96.33
2023-01-11T01:55:07.181Z,96.33
2023-01-11T01:56:07.160Z,96.23
2023-01-11T01:57:07.200Z,96.33
2023-01-11T01:58:07.141Z,96.23
2023-01-11T01:59:07.144Z,96.23
2023-01-11T02:00:07.101Z,96.23
2023-01-11T02:01:07.100Z,96.23
2023-01-11T02:02:07.072Z,96.12
2023-01-11T02:03:07.132Z,96.02
2023-01-11T02:04:07.071Z,96.02
2023-01-11T02:05:07.059Z,96.02
2023-01-11T02:06:07.042Z,95.92
2023-01-11T02:07:07.045Z,95.92
2023-01-11T02:08:06.999Z,95.92
2023-01-11T02:09:07.034Z,95.92
2023-01-11T02:10:07.877Z,95.92
2023-01-11T02:11:07.019Z,95.92
2023-01-11T02:12:06.961Z,95.92
2023-01-11T02:13:06.968Z,96.02
2023-01-11T02:14:06.938Z,96.12
2023-01-11T02:15:06.938Z,96.23
2023-01-11T02:16:07.006Z,96.23
2023-01-11T02:17:06.957Z,96.33
2023-01-11T02:18:06.878Z,96.44
2023-01-11T02:19:06.895Z,96.44
2023-01-11T02:20:06.871Z,96.44
2023-01-11T02:21:06.887Z,96.33
2023-01-11T02:22:06.846Z,96.44
2023-01-11T02:23:06.839Z,96.44
2023-01-11T02:24:06.817Z,96.44
2023-01-11T02:25:06.822Z,96.44
2023-01-11T02:26:06.783Z,96.44
2023-01-11T02:27:06.839Z,96.44
2023-01-11T02:28:06.769Z,96.39
2023-01-11T02:29:06.777Z,96.28
2023-01-11T02:30:06.753Z,96.28
2023-01-11T02:31:06.802Z,96.18
2023-01-11T02:32:06.728Z,96.28
2023-01-11T02:33:06.738Z,96.28
2023-01-11T02:34:06.697Z,96.28
2023-01-11T02:35:06.703Z,96.18
2023-01-11T02:36:06.676Z,96.28
2023-01-11T02:37:06.688Z,96.18
2023-01-11T02:38:06.650Z,96.18
2023-01-11T02:39:06.685Z,96.28
2023-01-11T02:40:06.626Z,96.18
2023-01-11T02:41:06.644Z,96.28
2023-01-11T02:42:06.620Z,96.18
2023-01-11T02:43:06.614Z,96.18
2023-01-11T02:44:06.578Z,96.18
2023-01-11T02:45:15.357Z,96.18
2023-01-11T02:46:06.604Z,96.18
2023-01-11T02:47:06.565Z,96.18
2023-01-11T02:48:06.535Z,96.18
2023-01-11T02:49:06.546Z,96.18
2023-01-11T02:50:06.543Z,96.08
2023-01-11T02:51:06.553Z,95.98
2023-01-11T02:52:06.539Z,95.87
2023-01-11T02:53:06.505Z,95.77
2023-01-11T02:54:06.473Z,95.73
2023-01-11T02:55:06.477Z,95.73
2023-01-11T02:56:06.472Z,95.62
2023-01-11T02:57:06.536Z,95.62
2023-01-11T02:58:06.453Z,95.73
2023-01-11T02:59:06.463Z,95.73
2023-01-11T03:00:06.425Z,95.83
2023-01-11T03:01:06.434Z,95.93
2023-01-11T03:02:06.412Z,95.93
2023-01-11T03:03:06.424Z,96.03
2023-01-11T03:04:06.375Z,96.18
2023-01-11T03:05:06.371Z,96.28
2023-01-11T03:06:06.347Z,96.39
2023-01-11T03:07:06.336Z,96.49
2023-01-11T03:08:06.321Z,96.49
2023-01-11T03:09:06.318Z,96.59
2023-01-11T03:10:07.014Z,96.70
2023-01-11T03:11:06.305Z,96.80
2023-01-11T03:12:06.259Z,96.91
2023-01-11T03:13:06.254Z,96.91
2023-01-11T03:14:06.231Z,97.01
2023-01-11T03:15:07.050Z,97.01
2023-01-11T03:16:06.312Z,97.01
2023-01-11T03:17:06.217Z,97.11
2023-01-11T03:18:06.186Z,97.11
2023-01-11T03:19:06.193Z,97.11
2023-01-11T03:20:06.190Z,97.11
2023-01-11T03:21:06.205Z,97.11
2023-01-11T03:22:06.189Z,97.11
2023-01-11T03:23:06.149Z,97.11
2023-01-11T03:24:06.123Z,97.11
2023-01-11T03:25:06.148Z,97.21
2023-01-11T03:26:06.132Z,97.21
2023-01-11T03:27:06.124Z,97.21
2023-01-11T03:28:06.109Z,97.17
2023-01-11T03:29:06.101Z,97.21
2023-01-11T03:30:06.054Z,97.31
2023-01-11T03:31:06.115Z,97.31
2023-01-11T03:32:06.027Z,97.31
2023-01-11T03:33:06.055Z,97.21
2023-01-11T03:34:06.028Z,97.27
2023-01-11T03:35:06.049Z,97.17
2023-01-11T03:36:05.983Z,97.17
2023-01-11T03:37:05.995Z,97.17
2023-01-11T03:38:05.964Z,97.17
2023-01-11T03:39:05.966Z,97.17
2023-01-11T03:40:05.957Z,97.17
2023-01-11T03:41:05.945Z,97.17
2023-01-11T03:42:05.929Z,97.17
2023-01-11T03:43:05.912Z,97.17
2023-01-11T03:44:05.889Z,97.17
2023-01-11T03:45:05.920Z,97.17
2023-01-11T03:46:05.861Z,97.17
2023-01-11T03:47:05.914Z,97.17
2023-01-11T03:48:05.833Z,97.17
2023-01-11T03:49:05.876Z,97.06
2023-01-11T03:50:05.810Z,97.06
2023-01-11T03:51:05.836Z,97.06
2023-01-11T03:52:05.789Z,97.06
2023-01-11T03:53:05.793Z,97.06
2023-01-11T03:54:05.760Z,97.06
2023-01-11T03:55:06.228Z,97.06
2023-01-11T03:56:05.779Z,97.06
2023-01-11T03:57:05.760Z,97.17
2023-01-11T03:58:05.717Z,97.17
2023-01-11T03:59:05.752Z,97.17
2023-01-11T04:00:05.709Z,97.17
2023-01-11T04:01:05.760Z,97.17
2023-01-11T04:02:05.715Z,97.17
2023-01-11T04:03:05.693Z,97.27
2023-01-11T04:04:05.702Z,97.13
2023-01-11T04:05:05.665Z,97.13
2023-01-11T04:06:05.641Z,97.13
2023-01-11T04:07:05.662Z,97.13
2023-01-11T04:08:05.601Z,97.13
2023-01-11T04:09:05.617Z,97.13
2023-01-11T04:10:05.586Z,97.13
2023-01-11T04:11:05.590Z,97.13
2023-01-11T04:12:05.565Z,97.23
2023-01-11T04:13:05.602Z,97.23
2023-01-11T04:14:05.544Z,97.33
2023-01-11T04:15:05.571Z,97.33
2023-01-11T04:16:05.594Z,97.33
2023-01-11T04:17:05.553Z,97.23
2023-01-11T04:18:05.511Z,97.23
2023-01-11T04:19:05.511Z,97.33
2023-01-11T04:20:05.485Z,97.33
2023-01-11T04:21:05.480Z,97.39
2023-01-11T04:22:05.432Z,97.39
2023-01-11T04:23:05.457Z,97.39
2023-01-11T04:24:05.430Z,97.39
2023-01-11T04:25:05.446Z,97.39
2023-01-11T04:26:05.389Z,97.39
2023-01-11T04:27:05.401Z,97.28
2023-01-11T04:28:05.374Z,97.18
2023-01-11T04:29:05.369Z,97.18
2023-01-11T04:30:05.359Z,97.18
2023-01-11T04:31:05.357Z,97.18
2023-01-11T04:32:05.328Z,97.28
2023-01-11T04:33:05.369Z,97.28
2023-01-11T04:34:05.313Z,97.39
2023-01-11T04:35:05.336Z,97.39
2023-01-11T04:36:05.289Z,97.49
2023-01-11T04:37:05.898Z,97.49
2023-01-11T04:38:05.311Z,97.60
2023-01-11T04:39:05.278Z,97.60
2023-01-11T04:40:05.237Z,97.69
2023-01-11T04:41:05.270Z,97.69
2023-01-11T04:42:05.224Z,97.69
2023-01-11T04:43:05.225Z,97.69
2023-01-11T04:44:05.254Z,97.80
2023-01-11T04:45:05.263Z,97.80
2023-01-11T04:46:05.242Z,97.80
2023-01-11T04:47:05.199Z,97.80
2023-01-11T04:48:05.151Z,97.80
2023-01-11T04:49:05.255Z,97.90
2023-01-11T04:50:05.170Z,97.90
2023-01-11T04:51:05.158Z,98.00
2023-01-11T04:52:05.168Z,98.00
2023-01-11T04:53:05.117Z,98.11
2023-01-11T04:54:05.081Z,98.11
2023-01-11T04:55:05.115Z,98.21
2023-01-11T04:56:05.082Z,98.21
2023-01-11T04:57:05.082Z,98.21
2023-01-11T04:58:05.039Z,98.32
2023-01-11T04:59:05.056Z,98.32
2023-01-11T05:00:05.025Z,98.42
2023-01-11T05:01:05.082Z,98.52
2023-01-11T05:02:04.997Z,98.52
2023-01-11T05:03:05.010Z,98.52
2023-01-11T05:04:05.051Z,98.52
2023-01-11T05:05:04.980Z,98.62
2023-01-11T05:06:04.946Z,98.62
2023-01-11T05:07:04.987Z,98.62
2023-01-11T05:08:05.030Z,98.72
2023-01-11T05:09:04.942Z,98.72
2023-01-11T05:10:04.929Z,98.72
2023-01-11T05:11:04.917Z,98.72
2023-01-11T05:12:04.896Z,98.83
2023-01-11T05:13:04.908Z,98.83
2023-01-11T05:14:04.893Z,98.83
2023-01-11T05:15:04.867Z,98.93
2023-01-11T05:16:04.894Z,98.93
2023-01-11T05:17:04.843Z,99.04
2023-01-11T05:18:04.820Z,99.04
2023-01-11T05:19:04.851Z,99.14
2023-01-11T05:20:04.823Z,99.14
2023-01-11T05:21:04.812Z,99.14
2023-01-11T05:22:04.775Z,99.14
2023-01-11T05:23:04.784Z,99.24
2023-01-11T05:24:04.737Z,99.19
2023-01-11T05:25:04.764Z,99.34
2023-01-11T05:26:04.727Z,99.30
2023-01-11T05:27:04.724Z,99.30
2023-01-11T05:28:04.725Z,99.30
2023-01-11T05:29:04.725Z,99.19
2023-01-11T05:30:04.716Z,99.19
2023-01-11T05:31:04.685Z,99.30
2023-01-11T05:32:04.711Z,99.30
2023-01-11T05:33:04.665Z,99.30
2023-01-11T05:34:04.652Z,99.30
2023-01-11T05:35:04.616Z,99.40
2023-01-11T05:36:04.631Z,99.40
2023-01-11T05:37:04.636Z,99.40
2023-01-11T05:38:04.654Z,99.40
2023-01-11T05:39:04.575Z,99.40
2023-01-11T05:40:04.640Z,99.40
2023-01-11T05:41:04.572Z,99.40
2023-01-11T05:42:04.568Z,99.40
2023-01-11T05:43:04.538Z,99.51
2023-01-11T05:44:04.566Z,99.51
2023-01-11T05:45:04.501Z,99.51
2023-01-11T05:46:04.552Z,99.51
2023-01-11T05:47:04.503Z,99.51
2023-01-11T05:48:04.482Z,99.51
2023-01-11T05:49:04.501Z,99.51
2023-01-11T05:50:04.489Z,99.51
2023-01-11T05:51:04.435Z,99.51
2023-01-11T05:52:04.442Z,99.51
2023-01-11T05:53:04.430Z,99.51
2023-01-11T05:54:04.426Z,99.51
2023-01-11T05:55:04.405Z,99.51
2023-01-11T05:56:04.411Z,99.51
2023-01-11T05:57:04.395Z,99.51
2023-01-11T05:58:04.384Z,99.60
2023-01-11T05:59:04.599Z,99.60
2023-01-11T06:00:04.419Z,99.60
2023-01-11T06:01:04.327Z,99.60
2023-01-11T06:02:04.424Z,99.60
2023-01-11T06:03:04.379Z,99.60
2023-01-11T06:04:04.319Z,99.60
2023-01-11T06:05:04.272Z,99.60
2023-01-11T06:06:04.284Z,99.60
2023-01-11T06:07:04.335Z,99.60
2023-01-11T06:08:04.274Z,99.60
2023-01-11T06:09:04.238Z,99.60
2023-01-11T06:10:04.249Z,99.60
2023-01-11T06:11:04.622Z,99.60
2023-01-11T06:12:04.213Z,99.60
2023-01-11T06:13:04.198Z,99.60
2023-01-11T06:14:04.224Z,99.71
2023-01-11T06:15:04.163Z,99.71
2023-01-11T06:16:04.181Z,99.71
2023-01-11T06:17:04.138Z,99.71
2023-01-11T06:18:04.163Z,99.71
2023-01-11T06:19:04.147Z,99.71
2023-01-11T06:20:04.146Z,99.60
2023-01-11T06:21:04.084Z,99.60
2023-01-11T06:22:04.093Z,99.60
2023-01-11T06:23:04.080Z,99.56
2023-01-11T06:24:04.254Z,99.60
2023-01-11T06:25:04.043Z,99.46
2023-01-11T06:26:04.063Z,99.60
2023-01-11T06:27:04.042Z,99.56
2023-01-11T06:28:04.063Z,99.56
2023-01-11T06:29:04.019Z,99.56
2023-01-11T06:30:04.038Z,99.56
2023-01-11T06:31:04.100Z,99.56
2023-01-11T06:32:04.012Z,99.56
2023-01-11T06:33:03.974Z,99.46
2023-01-11T06:34:03.987Z,99.56
2023-01-11T06:35:03.932Z,99.46
2023-01-11T06:36:03.956Z,99.56
2023-01-11T06:37:03.932Z,99.46
2023-01-11T06:38:03.942Z,99.46
2023-01-11T06:39:04.558Z,99.46
2023-01-11T06:40:04.691Z,99.46
2023-01-11T06:41:03.863Z,99.46
2023-01-11T06:42:03.892Z,99.56
2023-01-11T06:43:03.875Z,99.56
2023-01-11T06:44:03.874Z,99.56
2023-01-11T06:45:03.820Z,99.56
2023-01-11T06:46:03.860Z,99.66
2023-01-11T06:47:03.800Z,99.56
2023-01-11T06:48:03.831Z,99.56
2023-01-11T06:49:03.823Z,99.56
2023-01-11T06:50:03.798Z,99.56
2023-01-11T06:51:03.767Z,99.56
2023-01-11T06:52:03.764Z,99.56
2023-01-11T06:53:03.731Z,99.56
2023-01-11T06:54:03.749Z,99.56
2023-01-11T06:55:03.711Z,99.66
2023-01-11T06:56:03.970Z,99.66
2023-01-11T06:57:03.728Z,99.66
2023-01-11T06:58:03.701Z,99.66
2023-01-11T06:59:03.678Z,99.66
2023-01-11T07:00:03.890Z,99.66
2023-01-11T07:01:03.672Z,99.66
2023-01-11T07:02:03.911Z,99.66
2023-01-11T07:03:03.639Z,99.66
2023-01-11T07:04:03.677Z,99.66
2023-01-11T07:05:03.597Z,99.66
2023-01-11T07:06:04.352Z,99.66
2023-01-11T07:07:03.581Z,99.66
2023-01-11T07:08:03.601Z,99.66
2023-01-11T07:09:03.577Z,99.66
2023-01-11T07:10:03.593Z,99.66
2023-01-11T07:11:03.609Z,99.66
2023-01-11T07:12:03.556Z,99.66
2023-01-11T07:13:03.510Z,99.66
2023-01-11T07:14:03.544Z,99.66
2023-01-11T07:15:03.546Z,99.66
2023-01-11T07:16:03.513Z,99.66
2023-01-11T07:17:03.479Z,99.66
2023-01-11T07:18:03.477Z,99.77
2023-01-11T07:19:04.253Z,99.77
2023-01-11T07:20:03.723Z,99.77
2023-01-11T07:21:03.594Z,99.77
2023-01-11T07:22:03.432Z,99.77
2023-01-11T07:23:03.403Z,99.77
2023-01-11T07:24:03.430Z,99.77
2023-01-11T07:25:03.409Z,99.87
2023-01-11T07:26:03.455Z,99.87
2023-01-11T07:27:03.352Z,99.82
2023-01-11T07:28:03.387Z,99.97
2023-01-11T07:29:03.330Z,99.97
2023-01-11T07:30:03.360Z,99.97
2023-01-11T07:31:03.379Z,99.97
2023-01-11T07:32:03.322Z,99.97
2023-01-11T07:33:03.298Z,99.97
2023-01-11T07:34:03.329Z,99.97
2023-01-11T07:35:03.264Z,99.97
2023-01-11T07:36:03.289Z,99.99
2023-01-11T07:37:03.238Z,99.99
2023-01-11T07:38:03.280Z,99.99
2023-01-11T07:39:04.127Z,99.99
2023-01-11T07:40:03.272Z,99.99
2023-01-11T07:41:03.358Z,99.99
2023-01-11T07:42:03.211Z,99.99
2023-01-11T07:43:03.178Z,99.99
2023-01-11T07:44:03.206Z,99.99
2023-01-11T07:45:03.195Z,99.99
2023-01-11T07:46:04.029Z,99.99
2023-01-11T07:47:03.151Z,99.99
2023-01-11T07:48:03.130Z,99.99
2023-01-11T07:49:03.141Z,99.99
2023-01-11T07:50:03.170Z,99.99
2023-01-11T07:51:03.080Z,99.99
2023-01-11T07:52:03.099Z,99.99
2023-01-11T07:53:03.409Z,99.99
2023-01-11T07:54:03.071Z,99.99
2023-01-11T07:55:03.058Z,99.99
2023-01-11T07:56:03.047Z,99.99
2023-01-11T07:57:03.015Z,99.99
2023-01-11T07:58:03.037Z,99.99
2023-01-11T07:59:02.994Z,99.99
2023-01-11T08:00:03.897Z,99.99
2023-01-11T08:01:03.841Z,99.99
2023-01-11T08:02:03.011Z,99.99
2023-01-11T08:03:03.181Z,99.99
2023-01-11T08:04:02.993Z,99.99
2023-01-11T08:05:03.418Z,99.99
2023-01-11T08:06:02.943Z,99.99
2023-01-11T08:07:02.991Z,99.99
2023-01-11T08:08:03.009Z,99.99
2023-01-11T08:09:02.876Z,99.99
2023-01-11T08:10:02.897Z,99.99
2023-01-11T08:11:04.919Z,99.99
2023-01-11T08:12:02.907Z,99.99
2023-01-11T08:13:02.898Z,99.99
2023-01-11T08:14:03.627Z,99.99
2023-01-11T08:15:02.805Z,99.99
2023-01-11T08:16:02.867Z,99.99
2023-01-11T08:17:02.836Z,99.99
2023-01-11T08:18:02.826Z,99.99
2023-01-11T08:19:02.769Z,99.99
2023-01-11T08:20:02.790Z,99.99
2023-01-11T08:21:02.777Z,99.99
2023-01-11T08:22:02.790Z,99.99
2023-01-11T08:23:02.743Z,99.99
2023-01-11T08:24:02.759Z,99.99
2023-01-11T08:25:02.720Z,99.99
2023-01-11T08:26:02.743Z,99.99
2023-01-11T08:27:02.759Z,99.99
2023-01-11T08:28:02.675Z,99.99
2023-01-11T08:29:02.656Z,99.99
2023-01-11T08:30:02.676Z,99.99
2023-01-11T08:31:02.719Z,99.99
2023-01-11T08:32:02.645Z,99.99
2023-01-11T08:33:02.617Z,99.99
2023-01-11T08:34:02.644Z,99.99
2023-01-11T08:35:02.587Z,99.99
2023-01-11T08:36:02.598Z,99.99
2023-01-11T08:37:02.610Z,99.99
2023-01-11T08:38:02.691Z,99.99
2023-01-11T08:39:02.538Z,99.99
2023-01-11T08:40:02.546Z,99.99
2023-01-11T08:41:02.826Z,99.99
2023-01-11T08:42:02.608Z,99.99
2023-01-11T08:43:02.540Z,99.99
2023-01-11T08:44:02.518Z,99.99
2023-01-11T08:45:02.494Z,99.99
2023-01-11T08:46:02.541Z,99.99
2023-01-11T08:47:02.475Z,99.99
2023-01-11T08:48:02.502Z,99.99
2023-01-11T08:49:02.436Z,99.99
2023-01-11T08:50:02.455Z,99.99
2023-01-11T08:51:02.467Z,99.99
2023-01-11T08:52:02.427Z,99.99
2023-01-11T08:53:02.400Z,99.99
2023-01-11T08:54:02.414Z,99.99
2023-01-11T08:55:02.365Z,99.99
2023-01-11T08:56:02.392Z,99.98
2023-01-11T08:57:03.302Z,99.99
2023-01-11T08:58:02.390Z,99.99
2023-01-11T08:59:02.446Z,99.99
2023-01-11T09:00:02.387Z,99.99
2023-01-11T09:01:02.436Z,99.99
2023-01-11T09:02:02.431Z,99.98
2023-01-11T09:03:02.454Z,99.98
2023-01-11T09:04:03.671Z,99.98
2023-01-11T09:05:02.247Z,99.98
2023-01-11T09:06:02.269Z,99.98
2023-01-11T09:07:02.262Z,99.98
2023-01-11T09:08:02.288Z,99.98
2023-01-11T09:09:02.224Z,99.98
2023-01-11T09:10:02.223Z,99.88
2023-01-11T09:11:02.174Z,99.88
2023-01-11T09:12:04.714Z,99.88
2023-01-11T09:13:02.163Z,99.88
2023-01-11T09:14:02.165Z,99.88
2023-01-11T09:15:02.131Z,99.77
2023-01-11T09:16:02.217Z,99.67
2023-01-11T09:17:02.118Z,99.57
2023-01-11T09:18:02.134Z,99.57
2023-01-11T09:19:10.374Z,99.47
2023-01-11T09:20:02.102Z,99.47
2023-01-11T09:21:02.059Z,99.26
2023-01-11T09:22:02.071Z,99.26
2023-01-11T09:23:02.053Z,99.26
2023-01-11T09:24:02.060Z,99.16
2023-01-11T09:25:02.032Z,99.16
2023-01-11T09:26:02.076Z,99.16
2023-01-11T09:27:02.068Z,99.16
2023-01-11T09:28:02.051Z,99.05
2023-01-11T09:29:02.081Z,98.96
2023-01-11T09:30:02.000Z,98.80
2023-01-11T09:31:02.012Z,98.70
2023-01-11T09:32:01.968Z,98.60
2023-01-11T09:33:01.917Z,98.50
2023-01-11T09:34:01.931Z,98.39
2023-01-11T09:35:01.901Z,98.39
2023-01-11T09:36:01.911Z,98.29
2023-01-11T09:37:01.882Z,98.29
2023-01-11T09:38:01.900Z,98.29
2023-01-11T09:39:01.849Z,98.39
2023-01-11T09:40:01.864Z,98.39
2023-01-11T09:41:01.832Z,98.39
2023-01-11T09:42:01.858Z,98.39
2023-01-11T09:43:01.813Z,98.50
2023-01-11T09:44:01.822Z,98.50
2023-01-11T09:45:01.806Z,98.50
2023-01-11T09:46:01.775Z,98.50
2023-01-11T09:47:01.789Z,98.60
2023-01-11T09:48:01.779Z,98.60
2023-01-11T09:49:01.765Z,98.70
2023-01-11T09:50:01.732Z,98.70
2023-01-11T09:51:01.798Z,98.80
2023-01-11T09:52:01.707Z,98.80
2023-01-11T09:53:01.760Z,98.80
2023-01-11T09:54:01.702Z,98.80
2023-01-11T09:55:01.698Z,98.80
2023-01-11T09:56:01.676Z,98.91
2023-01-11T09:57:01.689Z,98.91
2023-01-11T09:58:01.670Z,98.91
2023-01-11T09:59:01.664Z,98.91
2023-01-11T10:00:01.624Z,98.91
2023-01-11T10:01:01.798Z,98.91
2023-01-11T10:02:01.622Z,98.91
2023-01-11T10:03:01.602Z,98.91
2023-01-11T10:04:01.587Z,98.91
2023-01-11T10:05:01.621Z,98.91
2023-01-11T10:06:01.601Z,98.80
2023-01-11T10:07:01.568Z,98.80
2023-01-11T10:18:21.216Z,98.70
2023-01-11T10:18:27.730Z,98.60
2023-01-11T10:18:30.454Z,98.60
2023-01-11T10:18:34.250Z,98.60
2023-01-11T10:18:39.495Z,98.60
2023-01-11T10:19:31.456Z,98.60
2023-01-11T10:20:02.422Z,98.60
2023-01-11T10:21:01.391Z,98.55
2023-01-11T10:22:01.426Z,98.55
2023-01-11T10:23:01.389Z,98.55
2023-01-11T10:24:01.351Z,98.45
2023-01-11T10:25:01.363Z,98.45
2023-01-11T10:26:01.320Z,98.45
2023-01-11T10:27:01.365Z,98.35
2023-01-11T10:28:01.336Z,98.35
2023-01-11T10:29:01.329Z,98.29
2023-01-11T10:30:01.301Z,98.19
2023-01-11T10:31:01.371Z,98.19
2023-01-11T10:32:01.256Z,98.19
2023-01-11T10:33:01.270Z,98.19
2023-01-11T10:34:01.253Z,98.19
2023-01-11T10:35:01.249Z,98.19
2023-01-11T10:36:01.214Z,98.08
2023-01-11T10:37:01.228Z,98.08
2023-01-11T10:38:01.190Z,98.19
2023-01-11T10:39:01.230Z,98.19
2023-01-11T10:40:01.210Z,98.19
2023-01-11T10:41:01.194Z,98.19
2023-01-11T10:42:01.143Z,98.19
2023-01-11T10:43:01.149Z,98.19
2023-01-11T10:44:01.139Z,98.19
2023-01-11T10:45:01.139Z,98.19
2023-01-11T10:46:01.261Z,98.29
2023-01-11T10:47:01.121Z,98.25
2023-01-11T10:48:01.104Z,98.29
2023-01-11T10:49:01.069Z,98.19
2023-01-11T10:50:01.095Z,98.19
2023-01-11T10:51:01.071Z,98.08
2023-01-11T10:52:01.071Z,98.08
2023-01-11T10:53:01.081Z,98.08
2023-01-11T10:54:01.022Z,97.99
2023-01-11T10:55:01.010Z,97.88
2023-01-11T10:56:01.024Z,97.78
2023-01-11T10:57:03.017Z,97.67
2023-01-11T10:58:03.503Z,97.67
2023-01-11T10:59:00.991Z,97.67
2023-01-11T11:00:00.966Z,97.67
2023-01-11T11:01:01.253Z,97.67
2023-01-11T11:02:00.945Z,97.78
2023-01-11T11:03:00.938Z,97.88
2023-01-11T11:04:00.936Z,97.88
2023-01-11T11:05:00.918Z,97.99
2023-01-11T11:06:00.872Z,97.99
2023-01-11T11:07:00.898Z,97.99
2023-01-11T11:08:00.859Z,97.99
2023-01-11T11:09:00.903Z,97.99
2023-01-11T11:10:00.836Z,98.08
2023-01-11T11:11:00.840Z,98.08
2023-01-11T11:12:00.798Z,98.08
2023-01-11T11:13:00.825Z,97.99
2023-01-11T11:14:00.799Z,97.88
2023-01-11T11:15:00.796Z,97.78
2023-01-11T11:16:00.825Z,97.67
2023-01-11T11:17:00.820Z,97.47
2023-01-11T11:18:00.752Z,97.37
2023-01-11T11:19:00.776Z,97.37
2023-01-11T11:20:01.175Z,97.02
2023-01-11T11:21:00.745Z,96.60
2023-01-11T11:22:00.722Z,96.50
2023-01-11T11:23:00.734Z,96.30
2023-01-11T11:24:00.816Z,95.68
2023-01-11T11:25:00.997Z,95.37
2023-01-11T11:26:00.646Z,94.55
2023-01-11T11:27:00.728Z,94.55
2023-01-11T11:28:00.630Z,94.45
2023-01-11T11:29:00.653Z,94.34
2023-01-11T11:30:00.625Z,94.45
2023-01-11T11:31:00.627Z,94.55
2023-01-11T11:32:00.627Z,94.45
2023-01-11T11:33:00.601Z,94.14
2023-01-11T11:34:00.558Z,93.73
2023-01-11T11:35:00.580Z,93.63
2023-01-11T11:36:00.517Z,93.93
2023-01-11T11:37:00.534Z,94.04
2023-01-11T11:38:00.602Z,94.04
2023-01-11T11:39:00.794Z,94.14
2023-01-11T11:40:00.751Z,94.24
2023-01-11T11:41:00.681Z,94.04
2023-01-11T11:42:00.726Z,93.42
2023-01-11T11:43:00.615Z,93.42
2023-01-11T11:44:00.567Z,93.52
2023-01-11T11:45:00.836Z,93.52
2023-01-11T11:46:00.784Z,93.73
2023-01-11T11:47:00.680Z,93.93
2023-01-11T11:48:00.403Z,93.83
2023-01-11T11:49:00.402Z,93.42
2023-01-11T11:50:00.415Z,92.91
2023-01-11T11:51:00.489Z,93.17
2023-01-11T11:52:00.679Z,93.17
2023-01-11T11:53:00.435Z,92.55
2023-01-11T11:54:01.286Z,92.55
2023-01-11T11:55:00.466Z,92.35
2023-01-11T11:56:00.576Z,92.04
2023-01-11T11:57:00.430Z,91.74
2023-01-11T11:58:00.381Z,91.74
2023-01-11T11:59:04.565Z,91.53
2023-01-11T12:00:00.428Z,91.94
2023-01-11T12:01:00.362Z,91.84
2023-01-11T12:02:00.399Z,91.53
2023-01-11T12:03:00.247Z,91.42
2023-01-11T12:04:00.218Z,90.71
2023-01-11T12:05:00.268Z,91.22
2023-01-11T12:06:00.207Z,91.42
2023-01-11T12:07:00.196Z,91.16
2023-01-11T12:08:00.166Z,91.57
2023-01-11T12:09:00.177Z,91.78
2023-01-11T12:10:00.159Z,92.08
2023-01-11T12:11:00.205Z,92.19
2023-01-11T12:12:00.137Z,91.99
2023-01-11T12:13:00.169Z,92.46
2023-01-11T12:14:00.123Z,92.25
2023-01-11T12:15:00.237Z,91.74
2023-01-11T12:16:00.077Z,91.02
2023-01-11T12:17:00.283Z,91.02
2023-01-11T12:18:00.236Z,90.40
2023-01-11T12:19:00.306Z,89.58
2023-01-11T12:20:00.035Z,89.84
2023-01-11T12:21:00.035Z,89.33
2023-01-11T12:22:00.047Z,88.62
2023-01-11T12:23:00.005Z,87.53
2023-01-11T12:23:59.975Z,87.84
2023-01-11T12:24:59.986Z,87.43
2023-01-11T12:25:59.953Z,87.84
2023-01-11T12:26:59.994Z,87.53
2023-01-11T12:27:59.955Z,87.32
2023-01-11T12:28:59.981Z,86.30
2023-01-11T12:29:59.962Z,87.22
2023-01-11T12:31:00.059Z,87.02
2023-01-11T12:31:59.894Z,87.32
2023-01-11T12:32:59.954Z,86.85
2023-01-11T12:33:59.975Z,87.46
2023-01-11T12:35:00.090Z,87.53
2023-01-11T12:36:03.092Z,87.16
2023-01-11T12:37:00.480Z,87.16
2023-01-11T12:38:00.004Z,86.54
2023-01-11T12:39:00.234Z,87.26
2023-01-11T12:40:00.224Z,87.67
2023-01-11T12:41:00.284Z,87.37
2023-01-11T12:42:00.178Z,87.05
2023-01-11T12:43:00.059Z,87.26
2023-01-11T12:43:59.870Z,87.26
2023-01-11T12:44:59.915Z,87.67
2023-01-11T12:46:00.138Z,87.37
2023-01-11T12:47:00.007Z,87.57
2023-01-11T12:48:00.120Z,87.67
2023-01-11T12:48:59.955Z,87.57
2023-01-11T12:49:59.871Z,87.16
2023-01-11T12:50:59.914Z,86.95
2023-01-11T12:52:00.060Z,86.54
2023-01-11T12:53:00.102Z,85.72
2023-01-11T12:54:00.004Z,85.31
2023-01-11T12:54:59.794Z,85.62
2023-01-11T12:55:59.808Z,85.82
2023-01-11T12:56:59.825Z,85.46
2023-01-11T12:57:59.968Z,85.76